Friday, October 31, 2014
07:46 UTC
  |  Log In   |  Register Free
Airport Search:

Visalia Municipal Airport
(KVIS)

Visalia Municipal Airport Diagram
No Airport Diagram Available

FAA data valid effective September 18, 2014 - November 13, 2014 (unless otherwise noted).

 
 
 
 
 
 
 
 
 
 
 
 
 
 

Current Aviation Weather for Visalia Municipal Airport (KVIS)

The most recent METAR observation for KVIS was updated at: 0716
METAR Summary (Translated METAR)
KVIS
310655Z 12003KT 10SM 15/06 A2990 RMK AO1
KHJO
310653Z AUTO 11004KT 10SM CLR 14/06 A2989 RMK AO2 SLP123 T01390056
(11.4 nm SW from KVIS)
KPTV
310655Z AUTO 00000KT 10SM CLR 15/05 A2991 RMK AO1
(23.6 nm SE from KVIS)
TAF Summary (Translated TAF)
KVIS
310541Z 3106/0106 VRB03KT P6SM FEW150 BKN200 FM312200 19007KT P6SM SCT050 BKN100 BKN150 FM010300 29009KT 4SM -RA SCT020 OVC030
  Airport Weather Conditions for KVIS

 Current Weather at VIS
59° F

Southeast winds at 3.5 mph
VIS NOAA Radar

Pressure: 29.90 in
Humidity: 55%
Wind: Southeast at 3.5 MPH (3 KT)
Dew Point: 42.8°F
Visibility: 10.00 mi


Airport Weather Forecast for KVIS

Translated METAR and TAF for KVIS
Translated METAR for KVIS (0741 UTC 31 October 2014)
found at http://aviationweather.gov/adds/metars/
 
METAR text: KVIS 310735Z 11004KT 10SM 14/06 A2990 RMK AO1
Conditions at: KVIS (VISALIA MUNI , CA, US) observed 0735 UTC 31 October 2014
Temperature: 14.0°C (57°F)
Dewpoint: 6.0°C (43°F) [RH = 58%]
Pressure (altimeter): 29.90 inches Hg (1012.6 mb)
Winds: from the ESE (110 degrees) at 5 MPH (4 knots; 2.1 m/s)
Visibility: 10 or more miles (16+ km)
Ceiling: unknown
Clouds: missing
Weather: no significant weather observed at this time
Translated TAF for KVIS
Forecast for: KVIS (VISALIA MUNI , CA, US)
TAF Text: KVIS 310541Z 3106/0106 VRB03KT P6SM FEW150 BKN200
Forecast period: 0600 to 2200 UTC 31 October 2014
Forecast type: FROM: standard forecast or significant change
Winds: variable direction winds at 3 MPH (3 knots; 1.6 m/s)
Visibility: 6 or more miles (10+ km)
Ceiling: 20000 feet AGL
Clouds: few clouds at 15000 feet AGL
broken clouds at 20000 feet AGL
Weather: no significant weather forecast for this period
TAF Text: FM312200 19007KT P6SM SCT050 BKN100 BKN150
Forecast period: 2200 UTC 31 October 2014 to 0300 UTC 01 November 2014
Forecast type: FROM: standard forecast or significant change
Winds: from the S (190 degrees) at 8 MPH (7 knots; 3.6 m/s)
Visibility: 6 or more miles (10+ km)
Ceiling: 10000 feet AGL
Clouds: scattered clouds at 5000 feet AGL
broken clouds at 10000 feet AGL
broken clouds at 15000 feet AGL
Weather: no significant weather forecast for this period
TAF Text: FM010300 29009KT 4SM -RA SCT020 OVC030
Forecast period: 0300 to 0600 UTC 01 November 2014
Forecast type: FROM: standard forecast or significant change
Winds: from the WNW (290 degrees) at 10 MPH (9 knots; 4.7 m/s)
Visibility: 4 miles (6 km)
Ceiling: 3000 feet AGL
Clouds: scattered clouds at 2000 feet AGL
overcast cloud deck at 3000 feet AGL
Weather: -RA  (light rain)

Find All Airport Services Find A Hotel Find A Rental Car Find A Golf Course Find A Restaurant $100 Hamburger



FBO's on the Field
FBO Company Facility Photos Services Transportation Aviation Fuel Prices: Prices include tax
Catering Weather Repair Courtesy Rental Type 100LL JetA JetA+ MOGAS 8087
 
Add another FBO Facility Photos Catering Weather Repair Courtesy Rental Type 100LL JetA JetA+ MOGAS 8087
Services Transportation Aviation Fuel Prices: Prices include tax
There are no FBO's currently reporting fuel at VIS. List your FBO now


model-print
model-print
model-print
model-print